createdAt,value
2022-08-25T00:02:15.149Z,5.23
2022-08-25T00:05:13.487Z,5.07
2022-08-25T00:08:06.653Z,5.40
2022-08-25T00:11:03.112Z,5.50
2022-08-25T00:13:54.359Z,5.50
2022-08-25T00:16:44.075Z,4.73
2022-08-25T00:19:35.230Z,4.97
2022-08-25T00:22:23.491Z,4.60
2022-08-25T00:25:12.558Z,5.10
2022-08-25T00:28:04.072Z,4.93
2022-08-25T00:30:54.734Z,5.07
2022-08-25T00:33:49.307Z,5.37
2022-08-25T00:36:51.301Z,5.20
2022-08-25T00:39:40.236Z,5.30
2022-08-25T00:42:28.586Z,5.23
2022-08-25T00:45:16.934Z,4.70
2022-08-25T00:48:11.235Z,5.07
2022-08-25T00:51:07.588Z,5.30
2022-08-25T00:53:58.288Z,5.40
2022-08-25T00:56:47.539Z,4.70
2022-08-25T00:59:38.873Z,5.27
2022-08-25T01:02:28.667Z,5.40
2022-08-25T01:05:19.624Z,5.83
2022-08-25T01:08:16.291Z,5.23
2022-08-25T01:11:09.132Z,5.10
2022-08-25T01:14:03.010Z,4.90
2022-08-25T01:16:58.337Z,5.40
2022-08-25T01:19:54.362Z,5.07
2022-08-25T01:22:45.906Z,5.83
2022-08-25T01:25:55.759Z,5.47
2022-08-25T01:29:07.151Z,6.03
2022-08-25T01:32:02.704Z,6.30
2022-08-25T01:34:55.111Z,5.37
2022-08-25T01:37:45.908Z,5.17
2022-08-25T01:40:39.711Z,5.57
2022-08-25T01:43:37.087Z,5.73
2022-08-25T01:46:31.744Z,5.33
2022-08-25T01:49:21.858Z,5.20
2022-08-25T01:52:18.432Z,6.10
2022-08-25T01:55:10.319Z,5.63
2022-08-25T01:58:02.706Z,5.50
2022-08-25T02:00:54.276Z,5.27
2022-08-25T02:03:44.743Z,5.67
2022-08-25T02:06:38.537Z,5.40
2022-08-25T02:09:37.500Z,5.30
2022-08-25T02:12:33.034Z,5.90
2022-08-25T02:15:24.462Z,5.70
2022-08-25T02:18:16.063Z,6.30
2022-08-25T02:21:04.606Z,5.27
2022-08-25T02:23:53.305Z,5.33
2022-08-25T02:26:42.356Z,5.43
2022-08-25T02:29:34.661Z,4.90
2022-08-25T02:32:25.181Z,5.33
2022-08-25T02:35:18.400Z,5.20
2022-08-25T02:38:10.321Z,6.00
2022-08-25T02:41:00.316Z,5.83
2022-08-25T02:43:55.210Z,5.50
2022-08-25T02:46:44.804Z,5.83
2022-08-25T02:49:42.620Z,5.20
2022-08-25T02:52:30.839Z,6.00
2022-08-25T02:55:22.158Z,6.30
2022-08-25T02:58:14.162Z,5.53
2022-08-25T03:01:02.686Z,5.20
2022-08-25T03:03:59.817Z,5.53
2022-08-25T03:06:50.498Z,5.90
2022-08-25T03:09:42.338Z,5.67
2022-08-25T03:12:35.299Z,5.70
2022-08-25T03:15:25.588Z,6.27
2022-08-25T03:18:18.420Z,5.60
2022-08-25T03:21:12.926Z,5.40
2022-08-25T03:24:06.266Z,5.30
2022-08-25T03:26:58.581Z,6.30
2022-08-25T03:29:50.119Z,6.10
2022-08-25T03:32:39.548Z,6.03
2022-08-25T03:35:30.986Z,6.20
2022-08-25T03:38:20.806Z,6.00
2022-08-25T03:41:24.083Z,5.20
2022-08-25T03:44:17.706Z,5.30
2022-08-25T03:47:27.347Z,5.20
2022-08-25T03:50:17.863Z,5.73
2022-08-25T03:53:07.557Z,5.47
2022-08-25T03:56:09.537Z,5.50
2022-08-25T03:59:00.105Z,5.00
2022-08-25T04:01:55.367Z,6.17
2022-08-25T04:04:43.789Z,6.07
2022-08-25T04:07:32.244Z,5.97
2022-08-25T04:10:25.906Z,5.77
2022-08-25T04:13:24.055Z,6.27
2022-08-25T04:16:14.235Z,5.73
2022-08-25T04:19:05.951Z,5.90
2022-08-25T04:21:56.877Z,6.80
2022-08-25T04:24:45.596Z,6.20
2022-08-25T04:27:34.971Z,6.50
2022-08-25T04:30:28.600Z,6.30
2022-08-25T04:33:29.657Z,5.60
2022-08-25T04:36:22.781Z,5.90
2022-08-25T04:39:20.241Z,6.23
2022-08-25T04:42:11.491Z,5.57
2022-08-25T04:45:06.892Z,5.97
2022-08-25T04:48:10.882Z,6.17
2022-08-25T04:51:12.231Z,6.60
2022-08-25T04:54:01.966Z,6.10
2022-08-25T04:56:58.400Z,6.37
2022-08-25T04:59:50.452Z,6.40
2022-08-25T05:02:43.398Z,6.27
2022-08-25T05:05:50.834Z,6.20
2022-08-25T05:08:41.982Z,6.13
2022-08-25T05:11:48.930Z,6.53
2022-08-25T05:14:37.215Z,6.20
2022-08-25T05:17:26.590Z,7.10
2022-08-25T05:20:14.800Z,7.73
2022-08-25T05:23:04.419Z,6.53
2022-08-25T05:26:08.666Z,7.00
2022-08-25T05:28:57.432Z,6.60
2022-08-25T05:31:50.053Z,7.50
2022-08-25T05:34:41.161Z,8.03
2022-08-25T05:37:29.379Z,8.13
2022-08-25T05:40:31.402Z,7.63
2022-08-25T05:43:19.599Z,8.73
2022-08-25T05:46:14.780Z,9.30
2022-08-25T05:49:24.040Z,9.80
2022-08-25T05:52:26.569Z,10.20
2022-08-25T05:55:15.529Z,9.80
2022-08-25T05:58:30.623Z,11.07
2022-08-25T06:01:46.633Z,10.60
2022-08-25T06:04:41.086Z,11.30
2022-08-25T06:07:29.916Z,11.90
2022-08-25T06:10:20.139Z,13.03
2022-08-25T06:13:10.008Z,13.30
2022-08-25T06:15:58.807Z,13.87
2022-08-25T06:18:46.993Z,13.87
2022-08-25T06:21:35.250Z,13.80
2022-08-25T06:24:23.463Z,13.97
2022-08-25T06:27:11.691Z,12.67
2022-08-25T06:30:07.659Z,13.47
2022-08-25T06:32:56.929Z,12.33
2022-08-25T06:35:45.915Z,13.43
2022-08-25T06:38:34.153Z,13.93
2022-08-25T06:41:22.374Z,14.20
2022-08-25T06:44:11.038Z,12.50
2022-08-25T06:47:00.723Z,14.20
2022-08-25T06:49:48.969Z,12.67
2022-08-25T06:52:37.694Z,14.33
2022-08-25T06:55:25.882Z,14.73
2022-08-25T06:58:14.118Z,13.70
2022-08-25T07:01:12.341Z,13.83
2022-08-25T07:04:11.845Z,13.87
2022-08-25T07:07:01.923Z,13.30
2022-08-25T07:09:50.121Z,13.77
2022-08-25T07:12:40.137Z,13.10
2022-08-25T07:15:28.354Z,13.40
2022-08-25T07:18:16.677Z,12.93
2022-08-25T07:21:08.824Z,13.33
2022-08-25T07:23:58.569Z,13.10
2022-08-25T07:26:47.518Z,13.03
2022-08-25T07:29:42.298Z,13.80
2022-08-25T07:32:31.088Z,13.37
2022-08-25T07:35:20.365Z,13.80
2022-08-25T07:38:19.208Z,13.03
2022-08-25T07:41:10.913Z,14.93
2022-08-25T07:43:59.134Z,12.60
2022-08-25T07:46:47.405Z,12.50
2022-08-25T07:49:36.161Z,11.20
2022-08-25T07:52:28.148Z,10.60
2022-08-25T07:55:18.088Z,11.47
2022-08-25T07:58:08.131Z,13.40
2022-08-25T08:00:56.531Z,12.10
2022-08-25T08:03:50.279Z,12.30
2022-08-25T08:06:41.396Z,12.10
2022-08-25T08:09:32.257Z,10.80
2022-08-25T08:12:22.140Z,11.67
2022-08-25T08:15:11.592Z,12.43
2022-08-25T08:17:59.928Z,10.43
2022-08-25T08:20:48.851Z,10.93
2022-08-25T08:23:38.840Z,11.63
2022-08-25T08:26:48.166Z,10.90
2022-08-25T08:29:38.706Z,10.37
2022-08-25T08:32:32.434Z,10.60
2022-08-25T08:35:24.511Z,11.00
2022-08-25T08:38:18.506Z,10.90
2022-08-25T08:41:40.099Z,11.00
2022-08-25T08:44:52.045Z,12.93
2022-08-25T08:47:52.780Z,11.50
2022-08-25T08:50:47.855Z,11.50
2022-08-25T08:53:44.749Z,12.17
2022-08-25T08:56:45.355Z,11.30
2022-08-25T08:59:48.717Z,11.90
2022-08-25T09:02:51.839Z,12.70
2022-08-25T09:05:46.863Z,11.10
2022-08-25T09:08:36.195Z,11.03
2022-08-25T09:11:31.130Z,11.30
2022-08-25T09:14:34.214Z,13.20
2022-08-25T09:17:54.481Z,11.53
2022-08-25T09:21:04.378Z,11.07
2022-08-25T09:24:11.787Z,11.80
2022-08-25T09:27:15.862Z,12.07
2022-08-25T09:30:07.738Z,11.60
2022-08-25T09:33:05.193Z,11.90
2022-08-25T09:35:58.825Z,14.20
2022-08-25T09:38:47.403Z,14.53
2022-08-25T09:41:45.860Z,13.80
2022-08-25T09:44:43.874Z,15.93
2022-08-25T09:47:32.722Z,14.20
2022-08-25T09:50:22.537Z,14.67
2022-08-25T09:53:18.855Z,14.37
2022-08-25T09:56:12.430Z,14.50
2022-08-25T09:59:34.308Z,14.40
2022-08-25T10:02:26.779Z,18.00
2022-08-25T10:05:27.010Z,14.03
2022-08-25T10:08:26.455Z,13.53
2022-08-25T10:11:29.844Z,12.83
2022-08-25T10:14:30.062Z,12.10
2022-08-25T10:17:24.803Z,10.90
2022-08-25T10:20:21.420Z,10.73
2022-08-25T10:23:15.778Z,10.00
2022-08-25T10:26:10.268Z,9.10
2022-08-25T10:29:13.879Z,8.50
2022-08-25T10:32:11.997Z,8.23
2022-08-25T10:35:04.639Z,7.67
2022-08-25T10:38:04.624Z,7.30
2022-08-25T10:41:01.532Z,6.40
2022-08-25T10:44:01.095Z,6.60
2022-08-25T10:46:56.572Z,6.60
2022-08-25T10:49:50.056Z,6.20
2022-08-25T10:52:45.576Z,5.50
2022-08-25T10:55:43.981Z,5.40
2022-08-25T10:58:51.337Z,5.37
2022-08-25T11:01:53.543Z,5.60
2022-08-25T11:04:47.290Z,5.30
2022-08-25T11:07:39.079Z,5.40
2022-08-25T11:10:35.657Z,6.03
2022-08-25T11:13:29.946Z,5.33
2022-08-25T11:16:29.194Z,5.90
2022-08-25T11:19:21.228Z,6.20
2022-08-25T11:22:15.398Z,5.27
2022-08-25T11:25:19.918Z,5.00
2022-08-25T11:28:15.676Z,5.27
2022-08-25T11:31:05.116Z,5.00
2022-08-25T11:33:58.463Z,4.70
2022-08-25T11:36:56.165Z,5.83
2022-08-25T11:40:10.989Z,5.40
2022-08-25T11:43:15.184Z,4.83
2022-08-25T11:46:27.893Z,5.00
2022-08-25T11:49:46.008Z,4.90
2022-08-25T11:52:55.946Z,5.10
2022-08-25T11:55:50.550Z,4.70
2022-08-25T11:58:43.590Z,4.87
2022-08-25T12:02:01.494Z,5.00
2022-08-25T12:04:55.304Z,4.70
2022-08-25T12:08:19.577Z,4.80
2022-08-25T12:11:11.906Z,4.50
2022-08-25T12:14:16.045Z,4.30
2022-08-25T12:17:25.290Z,4.10
2022-08-25T12:20:16.135Z,4.50
2022-08-25T12:23:05.303Z,4.10
2022-08-25T12:25:56.207Z,4.57
2022-08-25T12:28:54.008Z,4.20
2022-08-25T12:32:07.004Z,4.10
2022-08-25T12:35:29.926Z,4.27
2022-08-25T12:38:28.214Z,4.60
2022-08-25T12:41:22.032Z,4.70
2022-08-25T12:44:38.977Z,5.03
2022-08-25T12:47:32.212Z,4.83
2022-08-25T12:50:39.560Z,4.20
2022-08-25T12:53:36.034Z,4.23
2022-08-25T12:56:32.388Z,4.33
2022-08-25T12:59:32.889Z,3.83
2022-08-25T13:03:03.916Z,3.90
2022-08-25T13:06:15.812Z,4.10
2022-08-25T13:09:32.278Z,4.00
2022-08-25T13:12:25.658Z,4.37
2022-08-25T13:15:16.248Z,4.17
2022-08-25T13:18:24.049Z,4.07
2022-08-25T13:21:17.644Z,3.90
2022-08-25T13:24:10.407Z,4.00
2022-08-25T13:27:01.902Z,4.10
2022-08-25T13:29:56.588Z,3.90
2022-08-25T13:32:45.174Z,4.30
2022-08-25T13:35:33.736Z,4.40
2022-08-25T13:38:22.645Z,4.07
2022-08-25T13:41:11.456Z,4.00
2022-08-25T13:44:02.536Z,3.90
2022-08-25T13:47:06.143Z,3.53
2022-08-25T13:49:59.076Z,3.70
2022-08-25T13:52:50.322Z,3.93
2022-08-25T13:55:50.989Z,3.60
2022-08-25T13:58:46.488Z,3.90
2022-08-25T14:01:49.318Z,4.03
2022-08-25T14:04:51.616Z,4.10
2022-08-25T14:08:09.150Z,4.17
2022-08-25T14:11:14.969Z,4.47
2022-08-25T14:14:05.181Z,4.37
2022-08-25T14:16:57.400Z,4.57
2022-08-25T14:19:48.870Z,4.03
2022-08-25T14:22:39.850Z,4.43
2022-08-25T14:25:36.904Z,3.90
2022-08-25T14:28:31.942Z,4.20
2022-08-25T14:31:27.664Z,4.03
2022-08-25T14:34:21.237Z,4.10
2022-08-25T14:37:11.638Z,3.90
2022-08-25T14:40:04.308Z,4.30
2022-08-25T14:42:52.929Z,4.33
2022-08-25T14:45:44.721Z,4.43
2022-08-25T14:48:40.968Z,4.20
2022-08-25T14:51:36.212Z,4.63
2022-08-25T14:54:27.278Z,4.00
2022-08-25T14:57:15.817Z,4.40
2022-08-25T15:00:08.984Z,4.60
2022-08-25T15:02:59.143Z,5.10
2022-08-25T15:05:47.903Z,4.67
2022-08-25T15:08:54.258Z,4.30
2022-08-25T15:11:44.161Z,4.40
2022-08-25T15:14:33.328Z,4.73
2022-08-25T15:17:22.051Z,4.50
2022-08-25T15:20:13.126Z,5.00
2022-08-25T15:23:03.996Z,5.20
2022-08-25T15:25:53.377Z,4.87
2022-08-25T15:28:44.641Z,4.73
2022-08-25T15:31:33.376Z,4.50
2022-08-25T15:34:21.928Z,4.73
2022-08-25T15:37:12.949Z,5.00
2022-08-25T15:40:04.429Z,4.43
2022-08-25T15:42:55.829Z,5.07
2022-08-25T15:45:46.399Z,4.60
2022-08-25T15:48:35.786Z,4.50
2022-08-25T15:51:24.565Z,4.40
2022-08-25T15:54:15.032Z,4.77
2022-08-25T15:57:03.566Z,4.50
2022-08-25T15:59:57.437Z,5.00
2022-08-25T16:02:46.980Z,4.60
2022-08-25T16:05:37.248Z,5.17
2022-08-25T16:08:26.008Z,5.23
2022-08-25T16:11:19.657Z,4.67
2022-08-25T16:14:11.716Z,5.10
2022-08-25T16:17:02.272Z,4.43
2022-08-25T16:19:50.816Z,5.10
2022-08-25T16:22:39.384Z,4.90
2022-08-25T16:25:28.489Z,5.10
2022-08-25T16:28:19.098Z,4.70
2022-08-25T16:31:10.247Z,5.10
2022-08-25T16:34:01.386Z,4.80
2022-08-25T16:36:51.606Z,5.20
2022-08-25T16:39:44.094Z,4.93
2022-08-25T16:42:32.745Z,5.10
2022-08-25T16:45:22.896Z,5.03
2022-08-25T16:48:11.490Z,4.90
2022-08-25T16:51:00.234Z,4.50
2022-08-25T16:54:15.152Z,5.27
2022-08-25T16:57:10.661Z,4.40
2022-08-25T16:59:59.263Z,5.53
2022-08-25T17:02:51.380Z,5.47
2022-08-25T17:05:42.154Z,4.90
2022-08-25T17:08:31.033Z,5.70
2022-08-25T17:11:21.934Z,4.70
2022-08-25T17:14:11.172Z,4.90
2022-08-25T17:16:59.908Z,4.90
2022-08-25T17:19:53.409Z,4.97
2022-08-25T17:22:44.250Z,5.47
2022-08-25T17:25:35.731Z,5.60
2022-08-25T17:28:24.710Z,5.40
2022-08-25T17:31:14.937Z,6.07
2022-08-25T17:34:03.583Z,4.93
2022-08-25T17:36:57.144Z,5.43
2022-08-25T17:39:45.846Z,5.20
2022-08-25T17:42:34.579Z,5.50
2022-08-25T17:45:24.620Z,6.00
2022-08-25T17:48:14.029Z,5.40
2022-08-25T17:51:02.722Z,5.90
2022-08-25T17:53:53.367Z,6.80
2022-08-25T17:56:44.664Z,7.30
2022-08-25T17:59:34.666Z,5.57
2022-08-25T18:02:23.309Z,6.10
2022-08-25T18:05:12.942Z,6.10
2022-08-25T18:08:01.845Z,6.07
2022-08-25T18:10:53.591Z,5.30
2022-08-25T18:13:42.563Z,5.60
2022-08-25T18:16:31.980Z,5.43
2022-08-25T18:19:23.042Z,5.63
2022-08-25T18:22:11.614Z,5.20
2022-08-25T18:25:00.809Z,5.70
2022-08-25T18:27:54.835Z,5.80
2022-08-25T18:30:44.625Z,5.57
2022-08-25T18:33:33.239Z,6.30
2022-08-25T18:36:21.830Z,5.93
2022-08-25T18:39:31.501Z,5.33
2022-08-25T18:42:22.722Z,4.87
2022-08-25T18:45:12.809Z,5.50
2022-08-25T18:48:01.549Z,5.10
2022-08-25T18:50:51.728Z,5.10
2022-08-25T18:53:50.218Z,5.03
2022-08-25T18:56:39.369Z,5.70
2022-08-25T18:59:27.964Z,5.17
2022-08-25T19:02:18.552Z,5.37
2022-08-25T19:05:10.684Z,5.47
2022-08-25T19:08:00.119Z,5.10
2022-08-25T19:10:50.472Z,5.53
2022-08-25T19:13:39.263Z,5.20
2022-08-25T19:16:35.478Z,4.90
2022-08-25T19:19:25.990Z,5.17
2022-08-25T19:22:38.117Z,4.83
2022-08-25T19:25:25.023Z,5.30
2022-08-25T19:28:21.830Z,5.50
2022-08-25T19:31:10.500Z,5.60
2022-08-25T19:33:59.957Z,4.93
2022-08-25T19:36:53.434Z,5.57
2022-08-25T19:39:44.998Z,5.37
2022-08-25T19:42:42.255Z,5.63
2022-08-25T19:45:34.176Z,5.50
2022-08-25T19:48:22.838Z,5.83
2022-08-25T19:51:12.884Z,5.87
2022-08-25T19:54:10.234Z,5.40
2022-08-25T19:57:02.558Z,5.97
2022-08-25T19:59:51.122Z,5.43
2022-08-25T20:02:43.055Z,5.50
2022-08-25T20:05:33.508Z,5.93
2022-08-25T20:08:31.996Z,5.90
2022-08-25T20:11:21.976Z,5.50
2022-08-25T20:14:12.235Z,5.10
2022-08-25T20:17:00.855Z,5.20
2022-08-25T20:19:49.369Z,6.03
2022-08-25T20:22:42.264Z,5.77
2022-08-25T20:25:36.942Z,6.00
2022-08-25T20:28:27.034Z,5.97
2022-08-25T20:31:16.568Z,5.60
2022-08-25T20:34:08.623Z,5.27
2022-08-25T20:36:59.980Z,5.93
2022-08-25T20:39:51.386Z,6.00
2022-08-25T20:42:43.386Z,6.00
2022-08-25T20:45:35.737Z,6.20
2022-08-25T20:48:24.300Z,5.70
2022-08-25T20:51:18.742Z,5.90
2022-08-25T20:54:07.642Z,6.60
2022-08-25T20:56:59.601Z,5.87
2022-08-25T20:59:48.192Z,6.10
2022-08-25T21:02:38.359Z,5.73
2022-08-25T21:05:28.165Z,5.77
2022-08-25T21:08:17.298Z,5.23
2022-08-25T21:11:08.482Z,5.47
2022-08-25T21:13:59.992Z,6.43
2022-08-25T21:16:52.450Z,6.27
2022-08-25T21:19:43.923Z,5.73
2022-08-25T21:22:33.848Z,6.33
2022-08-25T21:25:23.840Z,6.37
2022-08-25T21:28:14.905Z,6.47
2022-08-25T21:31:06.010Z,6.20
2022-08-25T21:33:57.083Z,6.03
2022-08-25T21:36:48.832Z,6.43
2022-08-25T21:39:39.368Z,6.80
2022-08-25T21:42:32.971Z,6.50
2022-08-25T21:45:23.739Z,6.17
2022-08-25T21:48:12.294Z,6.20
2022-08-25T21:51:07.597Z,6.30
2022-08-25T21:54:10.056Z,6.80
2022-08-25T21:57:00.195Z,7.30
2022-08-25T21:59:48.745Z,6.43
2022-08-25T22:02:37.392Z,6.67
2022-08-25T22:05:31.138Z,7.07
2022-08-25T22:08:19.676Z,6.70
2022-08-25T22:11:10.184Z,7.87
2022-08-25T22:13:59.172Z,7.10
2022-08-25T22:16:51.056Z,7.40
2022-08-25T22:19:41.365Z,7.10
2022-08-25T22:22:29.979Z,7.07
2022-08-25T22:25:18.621Z,7.67
2022-08-25T22:28:09.477Z,7.83
2022-08-25T22:31:09.111Z,7.13
2022-08-25T22:34:02.719Z,7.23
2022-08-25T22:36:51.483Z,7.50
2022-08-25T22:39:49.741Z,7.40
2022-08-25T22:42:38.804Z,7.80
2022-08-25T22:45:31.093Z,7.43
2022-08-25T22:48:20.673Z,8.37
2022-08-25T22:51:10.901Z,7.97
2022-08-25T22:54:02.001Z,8.00
2022-08-25T22:56:52.466Z,8.17
2022-08-25T22:59:43.945Z,7.47
2022-08-25T23:02:36.441Z,8.33
2022-08-25T23:05:25.052Z,8.77
2022-08-25T23:08:13.583Z,7.73
2022-08-25T23:11:03.220Z,7.50
2022-08-25T23:13:52.057Z,8.10
2022-08-25T23:16:44.811Z,7.83
2022-08-25T23:19:34.722Z,7.50
2022-08-25T23:22:24.505Z,8.47
2022-08-25T23:25:17.047Z,8.03
2022-08-25T23:28:07.615Z,7.40
2022-08-25T23:30:59.076Z,8.07
2022-08-25T23:33:50.001Z,8.00
2022-08-25T23:36:47.011Z,7.97
2022-08-25T23:39:35.649Z,7.77
2022-08-25T23:42:27.900Z,7.47
2022-08-25T23:45:18.421Z,7.70
2022-08-25T23:48:08.012Z,8.03
2022-08-25T23:50:56.705Z,8.20
2022-08-25T23:53:49.629Z,8.53
2022-08-25T23:56:44.571Z,8.47
2022-08-25T23:59:41.217Z,7.97
